首页
METAR-TAF:

METAR-TAF

机场 :

帕波, 匈牙利

纬度: 47-12N, 经度: 017-30E, 海拔: 145米

当前天气观测

该预报发布于51分钟前的03:45 UTC
风速10节,风向南转西南,有时为21节阵风,在西转西南之间变化
温度 5°C
湿度 45%
气压 1018 hPa
能见度10公里或以上
1500米以下无云,无积雨云

METAR: LHPA 210345Z 21010G21KT 170V250 CAVOK 05/M06 Q1018 NOSIG RMK BLU

时间: 05:36 (04:36 UTC)

预报

该预报发布于5小时和21分钟前的23:15 UTC
预报有效从21日的 00点(UTC)到 21日的 24点(UTC)
风速10节,风向
能见度10公里或以上
1500米以下无云,无积雨云
短暂存在
从 21日的 03点(UTC)到 21日的 08点(UTC)
风速12节,风向南转西南,有时为22节阵风
几率 30% :
短暂存在
从 21日的 04点(UTC)到 21日的 08点(UTC)
能见度10公里或以上
散云层高于5000英尺, 塔状积云.
多云层高于8300英尺
小阵雨, 小雨
成为
从 21日的 08点(UTC)到 21日的 11点(UTC)
风速22节,风向西北,有时为32节阵风
短暂存在
从 21日的 09点(UTC)到 21日的 15点(UTC)
风速30节,风向西北,有时为40节阵风
成为
从 21日的 15点(UTC)到 21日的 18点(UTC)
风速10节,风向北转西北
成为
从 21日的 21点(UTC)到 21日的 24点(UTC)
风速3节,风向多变

TAF: LHPA 202315Z 2100/2124 18010KT CAVOK TEMPO 2103/2108 20012G22KT PROB30 TEMPO 2104/2108 9999 -SHRA -RA SCT050TCU BKN083 BECMG 2108/2111 32022G32KT TEMPO 2109/2115 32030G40KT BECMG 2115/2118 33010KT BECMG 2121/2124 VRB03KT

超过4000个机场的气象观测和天气预报(METAR&TAF报告)。

可查询的气象台以黄色和红色小点在地图上表示。

将鼠标移到小点上方,可查看气象台名称。

然后点击查看天气观测和预报。

如需切换地图:点击带黑十字的绿色按钮放大地图;点击带横线的绿色按钮缩小地图;或者点击绿色箭头查看邻近地区的地图。


METAR-TAF: